Warson Woods, Missouri
Current Conditions -  °F | °C
As of 10:51 AM on Friday 24 Oct 2014 (Local Time) from KSTL Reporting Station
Broken Clouds Broken Clouds  
Wind Chill: 63°   Ceiling: 25000
Heat Index: 63°   Visibility: 8mi
Dew Point: 55°   Wind: 3mph
Humidity: 75%   Direction: 250°WSW
Pressure: 30.13"   Gusts: NA
Location:  38.5796°N, 90.4197°W
Report Text: KSTL 241551Z 25003KT 8SM FEW011 SCT020 BKN250 17/13 A3013 RMK AO2 SLP198 T01720128
Loading
Personal Weather Stations






























Interactive Weather Map
Tropical Storm Tracking
New forecast layout! Learn more

10-Day Weather Forecast

Advertisements
Track Severe Weather on mobile